sensor_id;sensor_type;location;lat;lon;timestamp;P1;durP1;ratioP1;P2;durP2;ratioP2
9128;SDS011;4599;50.906;6.786;2022-10-03T00:01:45;9.93;;;3.03;;
9128;SDS011;4599;50.906;6.786;2022-10-03T00:05:52;13.67;;;3.70;;
9128;SDS011;4599;50.906;6.786;2022-10-03T00:10:00;14.83;;;3.47;;
9128;SDS011;4599;50.906;6.786;2022-10-03T00:14:04;17.83;;;3.50;;
9128;SDS011;4599;50.906;6.786;2022-10-03T00:18:16;11.73;;;3.17;;
9128;SDS011;4599;50.906;6.786;2022-10-03T00:22:23;13.50;;;3.67;;
9128;SDS011;4599;50.906;6.786;2022-10-03T00:26:27;17.47;;;4.07;;
9128;SDS011;4599;50.906;6.786;2022-10-03T00:30:41;13.53;;;3.57;;
9128;SDS011;4599;50.906;6.786;2022-10-03T00:34:52;12.77;;;3.30;;
9128;SDS011;4599;50.906;6.786;2022-10-03T00:43:36;8.70;;;2.80;;
9128;SDS011;4599;50.906;6.786;2022-10-03T00:47:54;13.80;;;3.47;;
9128;SDS011;4599;50.906;6.786;2022-10-03T00:52:05;12.10;;;2.80;;
9128;SDS011;4599;50.906;6.786;2022-10-03T00:56:27;16.47;;;3.60;;
9128;SDS011;4599;50.906;6.786;2022-10-03T01:00:32;11.20;;;3.00;;
9128;SDS011;4599;50.906;6.786;2022-10-03T01:04:38;12.37;;;3.50;;
9128;SDS011;4599;50.906;6.786;2022-10-03T01:08:49;9.80;;;2.97;;
9128;SDS011;4599;50.906;6.786;2022-10-03T01:12:56;11.07;;;3.27;;
9128;SDS011;4599;50.906;6.786;2022-10-03T01:17:07;12.10;;;3.70;;
9128;SDS011;4599;50.906;6.786;2022-10-03T01:21:14;15.77;;;4.30;;
9128;SDS011;4599;50.906;6.786;2022-10-03T01:25:25;13.30;;;3.63;;
9128;SDS011;4599;50.906;6.786;2022-10-03T01:29:39;15.10;;;3.83;;
9128;SDS011;4599;50.906;6.786;2022-10-03T01:33:43;11.87;;;3.93;;
9128;SDS011;4599;50.906;6.786;2022-10-03T01:37:47;16.37;;;3.70;;
9128;SDS011;4599;50.906;6.786;2022-10-03T01:41:54;12.63;;;3.80;;
9128;SDS011;4599;50.906;6.786;2022-10-03T01:46:03;17.77;;;3.97;;
9128;SDS011;4599;50.906;6.786;2022-10-03T01:50:06;17.03;;;4.23;;
9128;SDS011;4599;50.906;6.786;2022-10-03T01:54:15;12.63;;;4.20;;
9128;SDS011;4599;50.906;6.786;2022-10-03T01:58:21;20.10;;;4.20;;
9128;SDS011;4599;50.906;6.786;2022-10-03T02:02:26;13.83;;;3.77;;
9128;SDS011;4599;50.906;6.786;2022-10-03T02:06:31;16.60;;;4.10;;
9128;SDS011;4599;50.906;6.786;2022-10-03T02:10:37;18.80;;;5.03;;
9128;SDS011;4599;50.906;6.786;2022-10-03T02:14:45;15.67;;;4.70;;
9128;SDS011;4599;50.906;6.786;2022-10-03T02:18:50;17.43;;;4.30;;
9128;SDS011;4599;50.906;6.786;2022-10-03T02:22:54;15.77;;;4.50;;
9128;SDS011;4599;50.906;6.786;2022-10-03T02:27:05;16.70;;;4.30;;
9128;SDS011;4599;50.906;6.786;2022-10-03T02:31:15;20.47;;;4.80;;
9128;SDS011;4599;50.906;6.786;2022-10-03T02:44:10;13.93;;;4.63;;
9128;SDS011;4599;50.906;6.786;2022-10-03T02:48:27;11.40;;;4.23;;
9128;SDS011;4599;50.906;6.786;2022-10-03T02:57:22;15.07;;;5.00;;
9128;SDS011;4599;50.906;6.786;2022-10-03T03:01:39;14.50;;;4.40;;
9128;SDS011;4599;50.906;6.786;2022-10-03T03:05:58;11.13;;;4.30;;
9128;SDS011;4599;50.906;6.786;2022-10-03T03:10:18;17.87;;;5.00;;
9128;SDS011;4599;50.906;6.786;2022-10-03T03:18:45;15.20;;;4.60;;
9128;SDS011;4599;50.906;6.786;2022-10-03T03:22:59;15.90;;;4.03;;
9128;SDS011;4599;50.906;6.786;2022-10-03T03:27:08;17.30;;;4.60;;
9128;SDS011;4599;50.906;6.786;2022-10-03T03:31:13;15.73;;;4.17;;
9128;SDS011;4599;50.906;6.786;2022-10-03T03:35:20;12.43;;;4.20;;
9128;SDS011;4599;50.906;6.786;2022-10-03T03:43:48;16.63;;;4.47;;
9128;SDS011;4599;50.906;6.786;2022-10-03T03:47:56;11.83;;;4.40;;
9128;SDS011;4599;50.906;6.786;2022-10-03T03:52:06;14.47;;;4.43;;
9128;SDS011;4599;50.906;6.786;2022-10-03T04:00:33;12.67;;;4.20;;
9128;SDS011;4599;50.906;6.786;2022-10-03T04:04:42;11.70;;;3.70;;
9128;SDS011;4599;50.906;6.786;2022-10-03T04:08:56;18.20;;;4.33;;
9128;SDS011;4599;50.906;6.786;2022-10-03T04:13:05;12.37;;;4.50;;
9128;SDS011;4599;50.906;6.786;2022-10-03T04:17:13;18.17;;;5.10;;
9128;SDS011;4599;50.906;6.786;2022-10-03T04:21:29;16.17;;;5.27;;
9128;SDS011;4599;50.906;6.786;2022-10-03T04:25:38;16.77;;;5.20;;
9128;SDS011;4599;50.906;6.786;2022-10-03T04:29:43;15.20;;;5.10;;
9128;SDS011;4599;50.906;6.786;2022-10-03T04:33:50;11.53;;;5.30;;
9128;SDS011;4599;50.906;6.786;2022-10-03T04:37:55;16.83;;;5.57;;
9128;SDS011;4599;50.906;6.786;2022-10-03T04:42:06;17.23;;;5.70;;
9128;SDS011;4599;50.906;6.786;2022-10-03T04:46:14;16.73;;;5.60;;
9128;SDS011;4599;50.906;6.786;2022-10-03T04:50:29;13.40;;;4.90;;
9128;SDS011;4599;50.906;6.786;2022-10-03T04:54:35;16.17;;;5.40;;
9128;SDS011;4599;50.906;6.786;2022-10-03T04:58:42;15.57;;;5.00;;
9128;SDS011;4599;50.906;6.786;2022-10-03T05:02:50;19.43;;;5.30;;
9128;SDS011;4599;50.906;6.786;2022-10-03T05:06:55;16.17;;;5.00;;
9128;SDS011;4599;50.906;6.786;2022-10-03T05:11:01;19.23;;;5.20;;
9128;SDS011;4599;50.906;6.786;2022-10-03T05:15:13;10.73;;;4.70;;
9128;SDS011;4599;50.906;6.786;2022-10-03T05:23:38;15.20;;;4.83;;
9128;SDS011;4599;50.906;6.786;2022-10-03T05:27:43;13.37;;;5.37;;
9128;SDS011;4599;50.906;6.786;2022-10-03T05:31:52;14.40;;;6.07;;
9128;SDS011;4599;50.906;6.786;2022-10-03T05:36:04;11.80;;;5.33;;
9128;SDS011;4599;50.906;6.786;2022-10-03T05:40:11;10.47;;;5.63;;
9128;SDS011;4599;50.906;6.786;2022-10-03T05:44:15;14.67;;;5.73;;
9128;SDS011;4599;50.906;6.786;2022-10-03T05:48:22;12.27;;;5.60;;
9128;SDS011;4599;50.906;6.786;2022-10-03T05:52:30;13.50;;;6.30;;
9128;SDS011;4599;50.906;6.786;2022-10-03T05:56:42;16.17;;;6.77;;
9128;SDS011;4599;50.906;6.786;2022-10-03T06:05:12;15.67;;;5.90;;
9128;SDS011;4599;50.906;6.786;2022-10-03T06:09:21;16.27;;;5.50;;
9128;SDS011;4599;50.906;6.786;2022-10-03T06:13:45;13.67;;;6.40;;
9128;SDS011;4599;50.906;6.786;2022-10-03T06:17:55;14.67;;;5.57;;
9128;SDS011;4599;50.906;6.786;2022-10-03T06:26:26;15.03;;;5.67;;
9128;SDS011;4599;50.906;6.786;2022-10-03T06:30:37;12.23;;;5.97;;
9128;SDS011;4599;50.906;6.786;2022-10-03T06:34:44;13.53;;;5.93;;
9128;SDS011;4599;50.906;6.786;2022-10-03T06:47:32;21.77;;;7.50;;
9128;SDS011;4599;50.906;6.786;2022-10-03T06:51:45;16.73;;;6.03;;
9128;SDS011;4599;50.906;6.786;2022-10-03T07:00:11;12.97;;;6.20;;
9128;SDS011;4599;50.906;6.786;2022-10-03T07:08:38;13.87;;;7.03;;
9128;SDS011;4599;50.906;6.786;2022-10-03T07:17:02;17.37;;;6.83;;
9128;SDS011;4599;50.906;6.786;2022-10-03T07:21:24;14.50;;;6.47;;
9128;SDS011;4599;50.906;6.786;2022-10-03T07:30:05;14.80;;;6.13;;
9128;SDS011;4599;50.906;6.786;2022-10-03T07:42:52;18.87;;;6.70;;
9128;SDS011;4599;50.906;6.786;2022-10-03T07:47:25;19.90;;;6.77;;
9128;SDS011;4599;50.906;6.786;2022-10-03T07:51:33;18.57;;;6.53;;
9128;SDS011;4599;50.906;6.786;2022-10-03T07:55:39;14.27;;;5.90;;
9128;SDS011;4599;50.906;6.786;2022-10-03T07:59:51;18.77;;;6.20;;
9128;SDS011;4599;50.906;6.786;2022-10-03T08:08:46;18.03;;;6.37;;
9128;SDS011;4599;50.906;6.786;2022-10-03T08:13:00;18.10;;;5.90;;
9128;SDS011;4599;50.906;6.786;2022-10-03T08:17:12;19.10;;;6.23;;
9128;SDS011;4599;50.906;6.786;2022-10-03T08:21:17;14.63;;;6.23;;
9128;SDS011;4599;50.906;6.786;2022-10-03T08:25:22;19.97;;;5.83;;
9128;SDS011;4599;50.906;6.786;2022-10-03T08:29:28;13.47;;;5.87;;
9128;SDS011;4599;50.906;6.786;2022-10-03T08:37:53;17.47;;;5.77;;
9128;SDS011;4599;50.906;6.786;2022-10-03T08:42:13;14.50;;;5.03;;
9128;SDS011;4599;50.906;6.786;2022-10-03T08:46:24;21.83;;;6.67;;
9128;SDS011;4599;50.906;6.786;2022-10-03T08:50:34;17.10;;;5.27;;
9128;SDS011;4599;50.906;6.786;2022-10-03T08:59:08;17.20;;;5.00;;
9128;SDS011;4599;50.906;6.786;2022-10-03T09:03:21;11.47;;;4.73;;
9128;SDS011;4599;50.906;6.786;2022-10-03T09:07:51;10.27;;;4.80;;
9128;SDS011;4599;50.906;6.786;2022-10-03T09:12:06;11.23;;;4.40;;
9128;SDS011;4599;50.906;6.786;2022-10-03T09:16:24;11.77;;;4.33;;
9128;SDS011;4599;50.906;6.786;2022-10-03T09:34:01;11.47;;;4.07;;
9128;SDS011;4599;50.906;6.786;2022-10-03T09:42:31;9.50;;;3.50;;
9128;SDS011;4599;50.906;6.786;2022-10-03T09:46:55;10.70;;;3.43;;
9128;SDS011;4599;50.906;6.786;2022-10-03T09:51:07;12.73;;;3.33;;
9128;SDS011;4599;50.906;6.786;2022-10-03T09:55:23;14.40;;;3.67;;
9128;SDS011;4599;50.906;6.786;2022-10-03T09:59:33;8.33;;;3.33;;
9128;SDS011;4599;50.906;6.786;2022-10-03T10:03:52;9.57;;;2.83;;
9128;SDS011;4599;50.906;6.786;2022-10-03T10:08:16;14.53;;;3.60;;
9128;SDS011;4599;50.906;6.786;2022-10-03T10:12:41;9.47;;;3.50;;
9128;SDS011;4599;50.906;6.786;2022-10-03T10:17:14;15.20;;;3.63;;
9128;SDS011;4599;50.906;6.786;2022-10-03T10:21:30;11.87;;;2.97;;
9128;SDS011;4599;50.906;6.786;2022-10-03T10:25:46;7.17;;;2.20;;
9128;SDS011;4599;50.906;6.786;2022-10-03T10:29:59;10.93;;;2.37;;
9128;SDS011;4599;50.906;6.786;2022-10-03T10:34:29;8.20;;;2.47;;
9128;SDS011;4599;50.906;6.786;2022-10-03T10:39:01;7.83;;;2.57;;
9128;SDS011;4599;50.906;6.786;2022-10-03T10:52:04;6.63;;;2.37;;
9128;SDS011;4599;50.906;6.786;2022-10-03T11:00:38;7.63;;;2.17;;
9128;SDS011;4599;50.906;6.786;2022-10-03T11:18:08;9.57;;;2.00;;
9128;SDS011;4599;50.906;6.786;2022-10-03T11:26:54;7.07;;;2.00;;
9128;SDS011;4599;50.906;6.786;2022-10-03T11:35:38;11.50;;;2.63;;
9128;SDS011;4599;50.906;6.786;2022-10-03T11:39:46;16.47;;;2.10;;
9128;SDS011;4599;50.906;6.786;2022-10-03T11:44:01;10.23;;;2.00;;
9128;SDS011;4599;50.906;6.786;2022-10-03T11:48:09;8.50;;;1.80;;
9128;SDS011;4599;50.906;6.786;2022-10-03T11:52:23;8.03;;;1.97;;
9128;SDS011;4599;50.906;6.786;2022-10-03T11:56:33;5.50;;;1.70;;
9128;SDS011;4599;50.906;6.786;2022-10-03T12:00:34;6.73;;;1.90;;
9128;SDS011;4599;50.906;6.786;2022-10-03T12:04:42;5.07;;;1.90;;
9128;SDS011;4599;50.906;6.786;2022-10-03T12:08:49;7.40;;;1.73;;
9128;SDS011;4599;50.906;6.786;2022-10-03T12:12:53;6.80;;;2.10;;
9128;SDS011;4599;50.906;6.786;2022-10-03T12:16:58;5.17;;;1.90;;
9128;SDS011;4599;50.906;6.786;2022-10-03T12:21:05;5.50;;;1.87;;
9128;SDS011;4599;50.906;6.786;2022-10-03T12:25:15;4.40;;;1.63;;
9128;SDS011;4599;50.906;6.786;2022-10-03T12:29:18;5.33;;;1.50;;
9128;SDS011;4599;50.906;6.786;2022-10-03T12:33:27;7.10;;;1.73;;
9128;SDS011;4599;50.906;6.786;2022-10-03T12:37:32;7.33;;;1.77;;
9128;SDS011;4599;50.906;6.786;2022-10-03T12:41:48;8.00;;;1.67;;
9128;SDS011;4599;50.906;6.786;2022-10-03T12:45:55;6.17;;;1.77;;
9128;SDS011;4599;50.906;6.786;2022-10-03T12:50:00;7.97;;;1.93;;
9128;SDS011;4599;50.906;6.786;2022-10-03T12:54:06;5.30;;;1.87;;
9128;SDS011;4599;50.906;6.786;2022-10-03T12:58:13;8.13;;;2.30;;
9128;SDS011;4599;50.906;6.786;2022-10-03T13:02:24;4.93;;;1.87;;
9128;SDS011;4599;50.906;6.786;2022-10-03T13:06:38;6.47;;;1.63;;
9128;SDS011;4599;50.906;6.786;2022-10-03T13:11:03;6.23;;;1.63;;
9128;SDS011;4599;50.906;6.786;2022-10-03T13:19:35;4.50;;;1.80;;
9128;SDS011;4599;50.906;6.786;2022-10-03T13:23:41;10.97;;;1.70;;
9128;SDS011;4599;50.906;6.786;2022-10-03T13:27:45;5.27;;;1.93;;
9128;SDS011;4599;50.906;6.786;2022-10-03T13:36:14;4.90;;;1.53;;
9128;SDS011;4599;50.906;6.786;2022-10-03T13:40:18;7.97;;;1.73;;
9128;SDS011;4599;50.906;6.786;2022-10-03T13:44:20;6.67;;;1.80;;
9128;SDS011;4599;50.906;6.786;2022-10-03T13:48:22;5.47;;;1.87;;
9128;SDS011;4599;50.906;6.786;2022-10-03T13:52:28;4.77;;;1.67;;
9128;SDS011;4599;50.906;6.786;2022-10-03T13:56:37;7.73;;;2.10;;
9128;SDS011;4599;50.906;6.786;2022-10-03T14:00:45;5.33;;;1.60;;
9128;SDS011;4599;50.906;6.786;2022-10-03T14:09:27;6.07;;;1.80;;
9128;SDS011;4599;50.906;6.786;2022-10-03T14:13:36;6.17;;;1.50;;
9128;SDS011;4599;50.906;6.786;2022-10-03T14:17:44;6.67;;;2.00;;
9128;SDS011;4599;50.906;6.786;2022-10-03T14:21:54;5.87;;;1.60;;
9128;SDS011;4599;50.906;6.786;2022-10-03T14:25:59;5.10;;;1.60;;
9128;SDS011;4599;50.906;6.786;2022-10-03T14:30:04;3.30;;;1.40;;
9128;SDS011;4599;50.906;6.786;2022-10-03T14:34:07;5.87;;;1.67;;
9128;SDS011;4599;50.906;6.786;2022-10-03T14:38:18;3.70;;;1.40;;
9128;SDS011;4599;50.906;6.786;2022-10-03T14:42:29;6.20;;;1.50;;
9128;SDS011;4599;50.906;6.786;2022-10-03T14:46:32;4.27;;;1.37;;
9128;SDS011;4599;50.906;6.786;2022-10-03T14:50:36;6.17;;;1.57;;
9128;SDS011;4599;50.906;6.786;2022-10-03T14:54:38;6.87;;;1.57;;
9128;SDS011;4599;50.906;6.786;2022-10-03T14:58:45;5.27;;;1.23;;
9128;SDS011;4599;50.906;6.786;2022-10-03T15:02:48;6.30;;;1.63;;
9128;SDS011;4599;50.906;6.786;2022-10-03T15:06:50;5.00;;;1.60;;
9128;SDS011;4599;50.906;6.786;2022-10-03T15:10:52;6.80;;;1.60;;
9128;SDS011;4599;50.906;6.786;2022-10-03T15:14:58;5.33;;;1.70;;
9128;SDS011;4599;50.906;6.786;2022-10-03T15:19:03;4.07;;;1.40;;
9128;SDS011;4599;50.906;6.786;2022-10-03T15:23:08;4.40;;;1.50;;
9128;SDS011;4599;50.906;6.786;2022-10-03T15:27:19;6.70;;;1.40;;
9128;SDS011;4599;50.906;6.786;2022-10-03T15:31:26;4.07;;;1.50;;
9128;SDS011;4599;50.906;6.786;2022-10-03T15:35:31;6.50;;;1.77;;
9128;SDS011;4599;50.906;6.786;2022-10-03T15:39:34;8.33;;;2.10;;
9128;SDS011;4599;50.906;6.786;2022-10-03T15:43:40;4.53;;;1.43;;
9128;SDS011;4599;50.906;6.786;2022-10-03T15:47:43;6.60;;;1.60;;
9128;SDS011;4599;50.906;6.786;2022-10-03T15:51:46;3.87;;;1.23;;
9128;SDS011;4599;50.906;6.786;2022-10-03T15:55:48;6.40;;;1.70;;
9128;SDS011;4599;50.906;6.786;2022-10-03T15:59:51;3.20;;;1.27;;
9128;SDS011;4599;50.906;6.786;2022-10-03T16:03:55;3.33;;;1.33;;
9128;SDS011;4599;50.906;6.786;2022-10-03T16:07:58;5.37;;;1.10;;
9128;SDS011;4599;50.906;6.786;2022-10-03T16:12:05;8.47;;;1.70;;
9128;SDS011;4599;50.906;6.786;2022-10-03T16:16:12;7.67;;;1.70;;
9128;SDS011;4599;50.906;6.786;2022-10-03T16:20:19;7.10;;;1.80;;
9128;SDS011;4599;50.906;6.786;2022-10-03T16:24:26;4.33;;;1.50;;
9128;SDS011;4599;50.906;6.786;2022-10-03T16:28:29;14.50;;;5.13;;
9128;SDS011;4599;50.906;6.786;2022-10-03T16:32:31;4.17;;;2.00;;
9128;SDS011;4599;50.906;6.786;2022-10-03T16:36:40;7.70;;;1.77;;
9128;SDS011;4599;50.906;6.786;2022-10-03T16:40:47;5.07;;;1.40;;
9128;SDS011;4599;50.906;6.786;2022-10-03T16:44:50;3.57;;;1.53;;
9128;SDS011;4599;50.906;6.786;2022-10-03T16:48:52;5.23;;;1.93;;
9128;SDS011;4599;50.906;6.786;2022-10-03T16:52:56;4.50;;;2.00;;
9128;SDS011;4599;50.906;6.786;2022-10-03T16:56:59;9.20;;;1.93;;
9128;SDS011;4599;50.906;6.786;2022-10-03T17:01:01;3.90;;;1.77;;
9128;SDS011;4599;50.906;6.786;2022-10-03T17:05:23;11.00;;;1.80;;
9128;SDS011;4599;50.906;6.786;2022-10-03T17:09:27;6.30;;;1.90;;
9128;SDS011;4599;50.906;6.786;2022-10-03T17:13:36;5.23;;;1.80;;
9128;SDS011;4599;50.906;6.786;2022-10-03T17:17:42;8.63;;;1.67;;
9128;SDS011;4599;50.906;6.786;2022-10-03T17:21:46;9.37;;;1.63;;
9128;SDS011;4599;50.906;6.786;2022-10-03T17:25:54;5.53;;;1.80;;
9128;SDS011;4599;50.906;6.786;2022-10-03T17:29:58;4.07;;;1.60;;
9128;SDS011;4599;50.906;6.786;2022-10-03T17:34:08;5.33;;;1.40;;
9128;SDS011;4599;50.906;6.786;2022-10-03T17:38:11;5.37;;;1.40;;
9128;SDS011;4599;50.906;6.786;2022-10-03T17:42:38;5.37;;;1.50;;
9128;SDS011;4599;50.906;6.786;2022-10-03T17:46:42;5.37;;;1.57;;
9128;SDS011;4599;50.906;6.786;2022-10-03T17:50:50;3.80;;;1.80;;
9128;SDS011;4599;50.906;6.786;2022-10-03T17:54:54;6.50;;;1.40;;
9128;SDS011;4599;50.906;6.786;2022-10-03T17:58:58;6.27;;;1.10;;
9128;SDS011;4599;50.906;6.786;2022-10-03T18:03:03;5.27;;;1.50;;
9128;SDS011;4599;50.906;6.786;2022-10-03T18:07:05;8.33;;;1.63;;
9128;SDS011;4599;50.906;6.786;2022-10-03T18:11:08;4.57;;;1.50;;
9128;SDS011;4599;50.906;6.786;2022-10-03T18:19:33;3.90;;;1.33;;
9128;SDS011;4599;50.906;6.786;2022-10-03T18:23:42;9.57;;;1.70;;
9128;SDS011;4599;50.906;6.786;2022-10-03T18:28:02;9.40;;;1.70;;
9128;SDS011;4599;50.906;6.786;2022-10-03T18:32:12;5.00;;;1.30;;
9128;SDS011;4599;50.906;6.786;2022-10-03T18:36:18;6.90;;;1.53;;
9128;SDS011;4599;50.906;6.786;2022-10-03T18:40:23;6.47;;;1.30;;
9128;SDS011;4599;50.906;6.786;2022-10-03T18:44:26;9.50;;;1.40;;
9128;SDS011;4599;50.906;6.786;2022-10-03T18:48:29;5.20;;;1.50;;
9128;SDS011;4599;50.906;6.786;2022-10-03T18:52:35;5.67;;;1.70;;
9128;SDS011;4599;50.906;6.786;2022-10-03T18:56:40;11.47;;;1.70;;
9128;SDS011;4599;50.906;6.786;2022-10-03T19:00:44;4.83;;;1.60;;
9128;SDS011;4599;50.906;6.786;2022-10-03T19:04:49;6.00;;;1.63;;
9128;SDS011;4599;50.906;6.786;2022-10-03T19:08:54;9.80;;;2.17;;
9128;SDS011;4599;50.906;6.786;2022-10-03T19:12:58;8.57;;;1.47;;
9128;SDS011;4599;50.906;6.786;2022-10-03T19:17:10;6.57;;;1.30;;
9128;SDS011;4599;50.906;6.786;2022-10-03T19:21:13;9.30;;;1.83;;
9128;SDS011;4599;50.906;6.786;2022-10-03T19:25:17;7.57;;;1.60;;
9128;SDS011;4599;50.906;6.786;2022-10-03T19:29:20;6.87;;;1.60;;
9128;SDS011;4599;50.906;6.786;2022-10-03T19:33:23;6.83;;;1.50;;
9128;SDS011;4599;50.906;6.786;2022-10-03T19:37:30;4.97;;;1.70;;
9128;SDS011;4599;50.906;6.786;2022-10-03T19:41:35;4.37;;;1.27;;
9128;SDS011;4599;50.906;6.786;2022-10-03T19:45:38;9.07;;;1.50;;
9128;SDS011;4599;50.906;6.786;2022-10-03T19:49:51;7.57;;;1.50;;
9128;SDS011;4599;50.906;6.786;2022-10-03T19:53:53;6.67;;;1.70;;
9128;SDS011;4599;50.906;6.786;2022-10-03T19:57:57;8.37;;;1.60;;
9128;SDS011;4599;50.906;6.786;2022-10-03T20:01:59;7.13;;;1.67;;
9128;SDS011;4599;50.906;6.786;2022-10-03T20:06:05;9.60;;;1.70;;
9128;SDS011;4599;50.906;6.786;2022-10-03T20:10:11;6.17;;;1.60;;
9128;SDS011;4599;50.906;6.786;2022-10-03T20:14:17;6.87;;;1.70;;
9128;SDS011;4599;50.906;6.786;2022-10-03T20:18:20;14.70;;;2.00;;
9128;SDS011;4599;50.906;6.786;2022-10-03T20:22:23;6.33;;;1.80;;
9128;SDS011;4599;50.906;6.786;2022-10-03T20:26:27;7.70;;;1.80;;
9128;SDS011;4599;50.906;6.786;2022-10-03T20:30:36;6.67;;;2.07;;
9128;SDS011;4599;50.906;6.786;2022-10-03T20:34:38;6.17;;;1.60;;
9128;SDS011;4599;50.906;6.786;2022-10-03T20:38:47;7.47;;;1.80;;
9128;SDS011;4599;50.906;6.786;2022-10-03T20:42:51;6.73;;;1.90;;
9128;SDS011;4599;50.906;6.786;2022-10-03T20:46:58;7.83;;;2.00;;
9128;SDS011;4599;50.906;6.786;2022-10-03T20:51:02;7.50;;;2.03;;
9128;SDS011;4599;50.906;6.786;2022-10-03T20:55:04;11.13;;;2.60;;
9128;SDS011;4599;50.906;6.786;2022-10-03T20:59:06;5.57;;;2.23;;
9128;SDS011;4599;50.906;6.786;2022-10-03T21:03:13;6.30;;;2.10;;
9128;SDS011;4599;50.906;6.786;2022-10-03T21:07:19;8.73;;;2.70;;
9128;SDS011;4599;50.906;6.786;2022-10-03T21:11:23;6.60;;;2.20;;
9128;SDS011;4599;50.906;6.786;2022-10-03T21:15:30;5.53;;;2.50;;
9128;SDS011;4599;50.906;6.786;2022-10-03T21:19:43;4.57;;;2.40;;
9128;SDS011;4599;50.906;6.786;2022-10-03T21:23:47;5.13;;;2.33;;
9128;SDS011;4599;50.906;6.786;2022-10-03T21:27:51;9.87;;;2.90;;
9128;SDS011;4599;50.906;6.786;2022-10-03T21:31:56;10.00;;;3.20;;
9128;SDS011;4599;50.906;6.786;2022-10-03T21:36:05;7.10;;;2.70;;
9128;SDS011;4599;50.906;6.786;2022-10-03T21:40:11;7.40;;;2.83;;
9128;SDS011;4599;50.906;6.786;2022-10-03T21:44:25;6.50;;;2.80;;
9128;SDS011;4599;50.906;6.786;2022-10-03T21:48:29;8.23;;;2.80;;
9128;SDS011;4599;50.906;6.786;2022-10-03T21:56:54;5.53;;;3.13;;
9128;SDS011;4599;50.906;6.786;2022-10-03T22:01:00;10.03;;;3.27;;
9128;SDS011;4599;50.906;6.786;2022-10-03T22:05:06;6.23;;;3.00;;
9128;SDS011;4599;50.906;6.786;2022-10-03T22:09:12;8.80;;;3.53;;
9128;SDS011;4599;50.906;6.786;2022-10-03T22:13:15;6.40;;;3.03;;
9128;SDS011;4599;50.906;6.786;2022-10-03T22:17:21;5.03;;;2.70;;
9128;SDS011;4599;50.906;6.786;2022-10-03T22:21:24;6.50;;;2.87;;
9128;SDS011;4599;50.906;6.786;2022-10-03T22:25:32;8.47;;;3.00;;
9128;SDS011;4599;50.906;6.786;2022-10-03T22:29:39;9.03;;;3.40;;
9128;SDS011;4599;50.906;6.786;2022-10-03T22:33:53;8.03;;;2.60;;
9128;SDS011;4599;50.906;6.786;2022-10-03T22:37:56;6.67;;;3.00;;
9128;SDS011;4599;50.906;6.786;2022-10-03T22:41:58;6.80;;;2.40;;
9128;SDS011;4599;50.906;6.786;2022-10-03T22:46:01;6.80;;;3.00;;
9128;SDS011;4599;50.906;6.786;2022-10-03T22:50:04;8.30;;;2.90;;
9128;SDS011;4599;50.906;6.786;2022-10-03T22:54:09;7.20;;;2.80;;
9128;SDS011;4599;50.906;6.786;2022-10-03T22:58:11;6.47;;;2.83;;
9128;SDS011;4599;50.906;6.786;2022-10-03T23:02:14;6.70;;;3.10;;
9128;SDS011;4599;50.906;6.786;2022-10-03T23:06:28;6.10;;;3.00;;
9128;SDS011;4599;50.906;6.786;2022-10-03T23:10:35;6.50;;;3.03;;
9128;SDS011;4599;50.906;6.786;2022-10-03T23:14:38;4.73;;;2.70;;
9128;SDS011;4599;50.906;6.786;2022-10-03T23:18:46;5.03;;;3.00;;
9128;SDS011;4599;50.906;6.786;2022-10-03T23:22:51;6.90;;;2.80;;
9128;SDS011;4599;50.906;6.786;2022-10-03T23:26:57;5.93;;;3.00;;
9128;SDS011;4599;50.906;6.786;2022-10-03T23:31:03;6.87;;;2.80;;
9128;SDS011;4599;50.906;6.786;2022-10-03T23:35:13;7.73;;;3.00;;
9128;SDS011;4599;50.906;6.786;2022-10-03T23:39:28;6.93;;;2.83;;
9128;SDS011;4599;50.906;6.786;2022-10-03T23:43:32;7.83;;;3.00;;
9128;SDS011;4599;50.906;6.786;2022-10-03T23:47:37;4.17;;;2.57;;
9128;SDS011;4599;50.906;6.786;2022-10-03T23:51:40;8.33;;;3.00;;
9128;SDS011;4599;50.906;6.786;2022-10-03T23:55:43;4.00;;;2.97;;
9128;SDS011;4599;50.906;6.786;2022-10-03T23:59:44;6.80;;;3.10;;
